East Orleans, MA

5:00 PM EST on January 31, 2015 (GMT -0500)
Chatham Municipal | Change Station
CLOSE
Current Station
Airport
Location: Chatham,
Elevation: 66 ft
Nearby Weather Stations
Active Advisory: Winter Storm Watch, Wind Advisory

Elev 66 ft 41.69 °N, 69.99 °W | Updated 8 minutes ago

Clear
Clear
22 °F
Feels Like 8 °F
N
16
Wind Variable Wind from NW
Gusts 31 mph

Today
High -- | Low -- °F
--% Chance of Precip.
Yesterday
High -- | Low -- °F
Precip. -- in
6:53 AM 4:53 PM
Waxing Gibbous, 91% visible
Pressure 29.85 in
Visibility 10.0 miles
Clouds Clear
Windchill 8 °F
Dew Point 2 °F
Humidity 42%
Rainfall 0.05 in
Snow Depth Not available.
UV 0 out of 12
Pollen .10 out of 12
Air Quality Not available.
Flu Activity Not available.
METAR KCQX 312152Z AUTO 31014G27KT 270V340 10SM CLR M06/M17 A2984 RMK AO2 PK WND 31030/2107 SLP107 T10561167

More Conditions Fewer Conditions

Pressure 29.85 in
Visibility 10.0 miles
Clouds Clear
Windchill 8 °F
Dew Point 2 °F
Humidity 42%
Rainfall 0.05 in
Snow Depth Not available.
UV 0 out of 12
Pollen .10 out of 12
Air Quality Not available.
Flu Activity Not available.
METAR KCQX 312152Z AUTO 31014G27KT 270V340 10SM CLR M06/M17 A2984 RMK AO2 PK WND 31030/2107 SLP107 T10561167

More Conditions Fewer Conditions

10-Day Weather Forecast

Almanac

Astronomy

Jan. 31, 2015 Rise Set
Actual Time
Civil Twilight
Nautical Twilight
Astronomical Twilight
Moon
Length of Visible Light
Length of Day
Tomorrow will be .
, % of the Moon is Illuminated

Today's Extremes

State Highs State Lows

Community

WunderPhotos

Upload Photos

1,792,221 photos uploaded!

WunderBlogs® & News

Nearby

Air Quality

  Air Quality AQ Index Pollutant
Not available.

Snow Depth

Station Depth Elevation

Earthquake Activity

City Distance Mag. Time & Date
Minimum magnitude displayed is 2.5.

Coastal Water Temperatures

Place Temperature

Nearby Weather Stations